Terminal Aerodrome Forecast
Issued by NWS

Home | Current Version | Previous Version | Text Only | Print | Product List | Glossary On
Versions: 1 2 3 4 5 6 7 8 9 10 11 12 13 14 15 16 17 18 19 20 21 22
000
FTUS44 KTSA 181700
TAFXNA
TAF
KXNA 181738Z 1818/1918 31006KT P6SM -RA SCT015 BKN050 OVC100
     FM182000 15005KT P6SM SCT025 SCT050
     FM190000 VRB03KT P6SM OVC050
     FM190800 00000KT 4SM BR BKN015 PROB30 1908/1912 4SM -TSRA
      OVC015CB
     FM191600 24006KT P6SM BKN025=

USA.gov is the U.S. government's official web portal to all federal, state and local government web resources and services.